Goshen, Ohio
Current Conditions -  °F | °C
As of 4:25 AM on Thursday 27 Nov 2014 (Local Time) from KLUK Reporting Station
Overcast Overcast  
Wind Chill: 23°   Ceiling: 2600
Heat Index: 29°   Visibility: 9mi
Dew Point: 23°   Wind: 6mph
Humidity: 78%   Direction: 340°NNW
Pressure: 30.14"   Gusts: NA
Location:  39.23°N, 84.16°W
Report Text: KLUK 270925Z AUTO 34005KT 9SM BKN026 OVC120 M02/M05 A3014 RMK AO2 T10171050
Loading
Personal Weather Stations






























Interactive Weather Map New forecast layout! Learn more

10-Day Weather Forecast

Advertisements
Track Severe Weather on mobile